Main page
METAR-TAF:

METAR-TAF

Airports :

Larnaca International Airport

Larnaca, Cyprus

latitude: 34-53N, longitude: 033-38E, elevation: 2 m

Current weather observation

The report was made 14 minutes ago, at 12:30 UTC
Wind 15 kt from the Southwest
Temperature 28°C
Humidity 30%
Pressure 1012 hPa
Visibility 10 km or more
Few clouds at a height of 2500 ft

METAR: LCLK 281230Z 22015KT 9999 FEW025 28/09 Q1012 NOSIG

Time: 15:44 (12:44 UTC)

Forecast

The report was made 1 hour and 14 minutes ago, at 11:30 UTC
Forecast valid from 28 at 12 UTC to 29 at 12 UTC
Wind 20 kt from the South/Southwest
Visibility 10 km or more
Few clouds at a height of 3000 ft
Becoming
from 28 at 14 UTC to 28 at 16 UTC
Wind 11 kt from the Northwest
Becoming
from 29 at 10 UTC to 29 at 12 UTC
Wind 24 kt from the Southwest

TAF: LCLK 281130Z 2812/2912 21020KT 9999 FEW030 BECMG 2814/2816 31011KT BECMG 2910/2912 22024KT

Weather observations and forecasts of more than 4000 airports (METAR and TAF reports).

The available stations are represented by yellow and red dots on the map.

Hover mouse over dot to see the name of the station.

Then click to see weather observations and forecasts.

To change the map : click on the green buttons with a black cross to zoom in, on the green button with a dash to zoom out, or on the green arrows for adjacent maps.


METAR-TAF: